createdAt,value
2018-04-26T00:00:28.799Z,11.40
2018-04-26T00:03:03.922Z,11.30
2018-04-26T00:05:39.449Z,11.30
2018-04-26T00:08:14.619Z,11.40
2018-04-26T00:10:50.610Z,11.30
2018-04-26T00:13:25.777Z,11.30
2018-04-26T00:16:00.986Z,11.30
2018-04-26T00:18:36.211Z,11.20
2018-04-26T00:21:11.351Z,11.20
2018-04-26T00:23:46.676Z,11.20
2018-04-26T00:26:22.542Z,11.20
2018-04-26T00:28:58.571Z,11.20
2018-04-26T00:31:33.841Z,11.20
2018-04-26T00:34:09.229Z,11.20
2018-04-26T00:36:45.137Z,11.10
2018-04-26T00:39:21.097Z,11.10
2018-04-26T00:41:56.239Z,11.10
2018-04-26T00:44:31.504Z,11.00
2018-04-26T00:47:06.654Z,10.90
2018-04-26T00:49:41.931Z,10.80
2018-04-26T00:52:17.251Z,10.70
2018-04-26T00:54:52.530Z,10.80
2018-04-26T00:57:28.675Z,10.70
2018-04-26T01:00:05.953Z,10.70
2018-04-26T01:02:41.245Z,10.60
2018-04-26T01:05:18.028Z,10.60
2018-04-26T01:07:53.313Z,10.60
2018-04-26T01:10:28.695Z,10.40
2018-04-26T01:13:03.972Z,10.30
2018-04-26T01:15:39.207Z,10.20
2018-04-26T01:18:14.370Z,10.20
2018-04-26T01:20:49.754Z,10.20
2018-04-26T01:23:24.825Z,10.10
2018-04-26T01:26:00.111Z,10.00
2018-04-26T01:28:36.053Z,9.90
2018-04-26T01:31:12.030Z,9.90
2018-04-26T01:33:47.122Z,9.90
2018-04-26T01:36:40.909Z,9.80
2018-04-26T01:39:16.891Z,9.80
2018-04-26T01:41:52.202Z,9.70
2018-04-26T01:44:27.496Z,9.70
2018-04-26T01:47:02.797Z,9.70
2018-04-26T01:49:38.194Z,9.70
2018-04-26T01:52:13.430Z,9.60
2018-04-26T01:54:48.714Z,9.50
2018-04-26T01:57:24.064Z,9.40
2018-04-26T01:59:59.401Z,9.40
2018-04-26T02:02:34.518Z,9.40
2018-04-26T02:05:09.940Z,9.20
2018-04-26T02:07:45.951Z,9.20
2018-04-26T02:10:21.880Z,9.10
2018-04-26T02:12:56.956Z,9.20
2018-04-26T02:15:34.378Z,9.10
2018-04-26T02:18:10.435Z,9.10
2018-04-26T02:20:45.655Z,9.10
2018-04-26T02:23:21.572Z,9.00
2018-04-26T02:25:56.809Z,9.00
2018-04-26T02:28:31.931Z,9.00
2018-04-26T02:31:07.352Z,9.00
2018-04-26T02:33:42.604Z,9.00
2018-04-26T02:36:17.933Z,8.90
2018-04-26T02:38:53.205Z,8.90
2018-04-26T02:41:28.635Z,8.90
2018-04-26T02:44:03.880Z,8.90
2018-04-26T02:46:39.914Z,8.90
2018-04-26T02:49:15.126Z,8.80
2018-04-26T02:51:50.440Z,8.90
2018-04-26T02:54:25.562Z,8.90
2018-04-26T02:57:00.817Z,8.90
2018-04-26T02:59:36.028Z,8.80
2018-04-26T03:02:11.924Z,8.70
2018-04-26T03:04:47.246Z,8.70
2018-04-26T03:07:22.599Z,8.80
2018-04-26T03:23:01.417Z,8.80
2018-04-26T03:25:37.839Z,8.70
2018-04-26T03:28:13.036Z,8.80
2018-04-26T03:30:49.583Z,8.80
2018-04-26T03:33:25.483Z,8.80
2018-04-26T03:36:00.652Z,8.80
2018-04-26T03:38:35.972Z,8.70
2018-04-26T03:41:11.232Z,8.70
2018-04-26T03:43:46.359Z,8.70
2018-04-26T03:46:21.628Z,8.60
2018-04-26T03:48:57.745Z,8.60
2018-04-26T03:51:32.919Z,8.60
2018-04-26T03:54:08.243Z,8.60
2018-04-26T03:56:43.555Z,8.60
2018-04-26T03:59:18.845Z,8.50
2018-04-26T04:02:12.048Z,8.50
2018-04-26T04:05:05.800Z,8.30
2018-04-26T04:07:42.762Z,8.20
2018-04-26T04:10:18.062Z,8.20
2018-04-26T04:12:53.306Z,8.20
2018-04-26T04:15:28.551Z,8.10
2018-04-26T04:18:03.881Z,8.10
2018-04-26T04:20:39.231Z,8.00
2018-04-26T04:23:14.450Z,8.00
2018-04-26T04:25:51.047Z,8.00
2018-04-26T04:28:27.036Z,7.90
2018-04-26T04:31:05.048Z,8.00
2018-04-26T04:33:40.965Z,8.00
2018-04-26T04:36:17.020Z,8.00
2018-04-26T04:38:52.137Z,8.00
2018-04-26T04:41:27.487Z,8.00
2018-04-26T04:44:02.832Z,8.00
2018-04-26T04:46:38.175Z,8.10
2018-04-26T04:49:13.594Z,8.10
2018-04-26T04:51:48.841Z,8.10
2018-04-26T04:54:24.124Z,8.20
2018-04-26T04:56:59.216Z,8.20
2018-04-26T04:59:35.107Z,8.20
2018-04-26T05:02:10.455Z,8.20
2018-04-26T05:04:46.461Z,8.20
2018-04-26T05:07:21.714Z,8.30
2018-04-26T05:09:56.904Z,8.30
2018-04-26T05:12:32.110Z,8.50
2018-04-26T05:15:07.443Z,8.50
2018-04-26T05:17:42.791Z,8.50
2018-04-26T05:20:18.171Z,8.50
2018-04-26T05:22:53.494Z,8.60
2018-04-26T05:25:28.708Z,8.70
2018-04-26T05:28:03.936Z,8.80
2018-04-26T05:30:39.196Z,8.70
2018-04-26T05:33:15.329Z,8.80
2018-04-26T05:35:50.461Z,8.80
2018-04-26T05:38:25.748Z,9.00
2018-04-26T05:41:00.847Z,9.20
2018-04-26T05:43:36.013Z,9.30
2018-04-26T05:46:12.770Z,9.60
2018-04-26T05:48:48.092Z,9.60
2018-04-26T05:51:23.903Z,9.90
2018-04-26T05:53:59.002Z,10.20
2018-04-26T05:56:34.291Z,10.40
2018-04-26T05:59:09.615Z,10.50
2018-04-26T06:01:44.958Z,10.80
2018-04-26T06:04:20.279Z,11.30
2018-04-26T06:06:55.635Z,10.90
2018-04-26T06:09:30.794Z,11.10
2018-04-26T06:12:05.980Z,11.40
2018-04-26T06:14:41.101Z,11.60
2018-04-26T06:17:16.437Z,11.50
2018-04-26T06:19:51.413Z,11.80
2018-04-26T06:22:26.664Z,12.00
2018-04-26T06:25:02.111Z,11.90
2018-04-26T06:27:37.361Z,12.20
2018-04-26T06:30:12.702Z,12.60
2018-04-26T06:32:47.924Z,12.90
2018-04-26T06:35:23.122Z,13.10
2018-04-26T06:37:59.042Z,13.30
2018-04-26T06:40:34.419Z,13.20
2018-04-26T06:43:09.618Z,13.20
2018-04-26T06:45:45.675Z,13.00
2018-04-26T06:48:20.796Z,13.00
2018-04-26T06:50:56.156Z,12.90
2018-04-26T06:53:31.507Z,13.10
2018-04-26T06:56:07.344Z,13.20
2018-04-26T06:58:42.504Z,13.10
2018-04-26T07:01:17.643Z,13.40
2018-04-26T07:03:52.756Z,13.80
2018-04-26T07:06:29.734Z,14.10
2018-04-26T07:09:05.594Z,14.10
2018-04-26T07:11:40.942Z,14.60
2018-04-26T07:14:16.244Z,14.60
2018-04-26T07:16:51.804Z,14.70
2018-04-26T07:19:27.182Z,14.40
2018-04-26T07:22:02.512Z,14.50
2018-04-26T07:24:38.444Z,14.40
2018-04-26T07:27:14.457Z,14.30
2018-04-26T07:29:49.731Z,14.30
2018-04-26T07:32:25.015Z,13.70
2018-04-26T07:35:00.091Z,13.80
2018-04-26T07:37:35.369Z,13.50
2018-04-26T07:40:10.562Z,13.20
2018-04-26T07:42:45.848Z,13.10
2018-04-26T07:45:21.921Z,12.90
2018-04-26T07:47:57.252Z,12.90
2018-04-26T07:50:32.385Z,12.60
2018-04-26T07:53:07.657Z,12.50
2018-04-26T07:55:42.987Z,12.40
2018-04-26T07:58:18.196Z,12.20
2018-04-26T08:00:54.075Z,13.40
2018-04-26T08:03:30.066Z,14.30
2018-04-26T08:06:05.248Z,14.20
2018-04-26T08:08:40.478Z,14.70
2018-04-26T08:11:15.707Z,15.30
2018-04-26T08:13:51.053Z,15.50
2018-04-26T08:16:27.040Z,15.90
2018-04-26T08:19:02.138Z,15.90
2018-04-26T08:21:37.405Z,16.00
2018-04-26T08:24:12.745Z,15.90
2018-04-26T08:26:48.010Z,15.20
2018-04-26T08:29:23.217Z,14.80
2018-04-26T08:31:59.184Z,14.10
2018-04-26T08:34:34.516Z,14.10
2018-04-26T08:37:09.860Z,13.80
2018-04-26T08:39:45.956Z,13.50
2018-04-26T08:42:21.156Z,13.50
2018-04-26T08:44:56.388Z,13.70
2018-04-26T08:47:31.700Z,13.90
2018-04-26T08:50:06.808Z,14.20
2018-04-26T08:52:43.868Z,14.70
2018-04-26T08:55:19.173Z,14.60
2018-04-26T08:57:54.340Z,15.00
2018-04-26T09:00:29.473Z,15.10
2018-04-26T09:03:05.343Z,14.70
2018-04-26T09:05:40.570Z,14.70
2018-04-26T09:08:15.882Z,14.60
2018-04-26T09:10:51.138Z,14.40
2018-04-26T09:13:26.520Z,14.40
2018-04-26T09:16:01.751Z,14.10
2018-04-26T09:18:37.747Z,15.20
2018-04-26T09:21:13.011Z,15.20
2018-04-26T09:23:48.356Z,15.40
2018-04-26T09:26:23.569Z,15.10
2018-04-26T09:28:59.591Z,15.10
2018-04-26T09:31:35.409Z,14.70
2018-04-26T09:34:10.607Z,14.70
2018-04-26T09:36:45.879Z,14.70
2018-04-26T09:39:21.015Z,15.10
2018-04-26T09:41:57.085Z,15.50
2018-04-26T09:44:32.316Z,15.40
2018-04-26T09:47:10.109Z,15.20
2018-04-26T09:49:45.383Z,15.20
2018-04-26T09:52:20.728Z,15.20
2018-04-26T09:54:56.087Z,15.00
2018-04-26T09:57:31.391Z,15.10
2018-04-26T10:00:06.649Z,15.50
2018-04-26T10:02:47.243Z,15.60
2018-04-26T10:18:44.551Z,15.40
2018-04-26T10:21:19.752Z,15.20
2018-04-26T10:23:55.169Z,15.10
2018-04-26T10:26:30.307Z,14.80
2018-04-26T10:29:06.332Z,14.40
2018-04-26T10:31:41.469Z,14.40
2018-04-26T10:34:16.843Z,14.50
2018-04-26T10:36:52.752Z,14.60
2018-04-26T10:39:28.651Z,14.50
2018-04-26T10:42:04.505Z,14.50
2018-04-26T10:44:39.709Z,14.50
2018-04-26T10:47:15.195Z,14.70
2018-04-26T10:49:50.599Z,14.90
2018-04-26T10:52:26.788Z,15.20
2018-04-26T10:55:02.015Z,15.40
2018-04-26T10:57:37.317Z,15.80
2018-04-26T11:00:12.725Z,16.10
2018-04-26T11:02:48.559Z,16.10
2018-04-26T11:05:23.813Z,16.10
2018-04-26T11:07:59.089Z,16.00
2018-04-26T11:10:34.430Z,15.90
2018-04-26T11:13:09.576Z,15.80
2018-04-26T11:15:44.921Z,16.20
2018-04-26T11:18:20.285Z,16.30
2018-04-26T11:20:56.274Z,17.00
2018-04-26T11:23:31.587Z,16.90
2018-04-26T11:26:07.469Z,17.00
2018-04-26T11:28:42.718Z,17.00
2018-04-26T11:31:17.997Z,16.80
2018-04-26T11:33:53.296Z,16.60
2018-04-26T11:36:28.472Z,16.00
2018-04-26T11:39:03.805Z,15.80
2018-04-26T11:41:39.094Z,15.80
2018-04-26T11:44:14.201Z,16.20
2018-04-26T11:46:50.169Z,16.80
2018-04-26T11:49:26.142Z,17.00
2018-04-26T11:52:01.389Z,16.90
2018-04-26T11:54:36.847Z,16.80
2018-04-26T11:57:12.003Z,16.90
2018-04-26T11:59:47.115Z,16.70
2018-04-26T12:02:22.421Z,16.40
2018-04-26T12:04:58.889Z,15.60
2018-04-26T12:07:34.352Z,15.60
2018-04-26T12:10:10.415Z,15.60
2018-04-26T12:12:45.577Z,15.60
2018-04-26T12:15:20.916Z,16.10
2018-04-26T12:17:56.822Z,17.00
2018-04-26T12:20:32.118Z,16.90
2018-04-26T12:23:07.213Z,16.80
2018-04-26T12:25:42.559Z,16.80
2018-04-26T12:28:17.934Z,16.60
2018-04-26T12:30:54.912Z,16.10
2018-04-26T12:33:29.971Z,16.10
2018-04-26T12:36:05.335Z,16.10
2018-04-26T12:38:40.637Z,16.20
2018-04-26T12:41:15.809Z,16.60
2018-04-26T12:43:51.109Z,16.60
2018-04-26T12:46:26.431Z,16.70
2018-04-26T12:49:02.336Z,16.90
2018-04-26T12:51:37.579Z,16.90
2018-04-26T12:54:13.600Z,17.00
2018-04-26T12:56:48.804Z,17.00
2018-04-26T12:59:24.721Z,16.70
2018-04-26T13:02:00.823Z,16.60
2018-04-26T13:04:36.147Z,16.10
2018-04-26T13:07:11.475Z,16.10
2018-04-26T13:09:46.833Z,16.10
2018-04-26T13:12:22.169Z,16.10
2018-04-26T13:14:57.514Z,15.70
2018-04-26T13:17:32.789Z,15.70
2018-04-26T13:20:08.042Z,15.80
2018-04-26T13:22:43.931Z,15.70
2018-04-26T13:25:19.225Z,15.50
2018-04-26T13:27:56.831Z,15.60
2018-04-26T13:30:32.181Z,15.80
2018-04-26T13:33:07.465Z,16.10
2018-04-26T13:35:43.522Z,15.50
2018-04-26T13:38:18.718Z,15.50
2018-04-26T13:40:54.615Z,15.30
2018-04-26T13:43:29.734Z,15.20
2018-04-26T13:46:04.947Z,15.20
2018-04-26T13:48:40.085Z,15.10
2018-04-26T13:51:15.290Z,15.20
2018-04-26T13:53:50.431Z,15.10
2018-04-26T13:56:25.734Z,15.20
2018-04-26T13:59:00.995Z,15.50
2018-04-26T14:01:36.143Z,15.70
2018-04-26T14:04:12.379Z,15.90
2018-04-26T14:06:47.809Z,15.90
2018-04-26T14:09:23.160Z,15.60
2018-04-26T14:11:58.568Z,15.30
2018-04-26T14:14:33.836Z,15.40
2018-04-26T14:17:09.965Z,15.20
2018-04-26T14:19:45.078Z,15.10
2018-04-26T14:22:20.312Z,15.20
2018-04-26T14:24:56.236Z,15.20
2018-04-26T14:27:31.371Z,15.20
2018-04-26T14:30:06.590Z,15.30
2018-04-26T14:32:42.014Z,15.50
2018-04-26T14:35:17.401Z,15.70
2018-04-26T14:37:52.595Z,15.70
2018-04-26T14:40:28.000Z,15.60
2018-04-26T14:43:04.057Z,15.70
2018-04-26T14:45:40.396Z,15.70
2018-04-26T14:48:16.388Z,15.80
2018-04-26T14:50:51.590Z,15.80
2018-04-26T14:53:26.726Z,15.70
2018-04-26T14:56:01.987Z,15.60
2018-04-26T14:58:38.917Z,15.50
2018-04-26T15:01:14.230Z,15.50
2018-04-26T15:03:50.365Z,15.40
2018-04-26T15:06:25.746Z,15.40
2018-04-26T15:09:00.921Z,15.40
2018-04-26T15:11:36.178Z,15.60
2018-04-26T15:14:11.496Z,15.60
2018-04-26T15:16:46.910Z,15.70
2018-04-26T15:19:22.078Z,15.60
2018-04-26T15:21:58.019Z,15.60
2018-04-26T15:24:34.081Z,15.60
2018-04-26T15:27:10.003Z,15.50
2018-04-26T15:29:45.944Z,15.40
2018-04-26T15:32:21.287Z,15.40
2018-04-26T15:34:59.930Z,15.50
2018-04-26T15:37:35.218Z,15.60
2018-04-26T15:40:11.351Z,15.80
2018-04-26T15:42:47.350Z,16.00
2018-04-26T15:45:22.783Z,15.90
2018-04-26T15:47:58.704Z,15.80
2018-04-26T16:04:37.727Z,15.30
2018-04-26T16:07:49.989Z,15.30
2018-04-26T16:10:48.928Z,15.30
2018-04-26T16:13:48.714Z,15.10
2018-04-26T16:16:47.511Z,15.20
2018-04-26T16:19:46.271Z,15.20
2018-04-26T16:36:18.767Z,15.20
2018-04-26T16:39:21.699Z,15.00
2018-04-26T16:41:56.971Z,15.00
2018-04-26T16:44:32.049Z,15.00
2018-04-26T16:47:07.422Z,14.80
2018-04-26T16:49:42.643Z,14.90
2018-04-26T16:52:17.955Z,14.70
2018-04-26T16:54:53.859Z,14.60
2018-04-26T16:57:28.971Z,14.60
2018-04-26T17:00:04.228Z,14.70
2018-04-26T17:02:39.572Z,14.80
2018-04-26T17:05:14.864Z,14.90
2018-04-26T17:07:50.129Z,14.90
2018-04-26T17:10:25.307Z,14.90
2018-04-26T17:13:01.218Z,15.00
2018-04-26T17:15:37.195Z,15.10
2018-04-26T17:18:12.314Z,15.10
2018-04-26T17:20:50.243Z,15.00
2018-04-26T17:23:25.379Z,15.00
2018-04-26T17:26:00.583Z,15.00
2018-04-26T17:28:36.255Z,14.90
2018-04-26T17:31:11.624Z,14.80
2018-04-26T17:33:48.217Z,14.90
2018-04-26T17:36:26.958Z,14.80
2018-04-26T17:39:02.153Z,14.70
2018-04-26T17:41:38.143Z,14.70
2018-04-26T17:44:13.317Z,14.70
2018-04-26T17:46:48.650Z,14.70
2018-04-26T17:49:24.593Z,14.70
2018-04-26T17:52:00.533Z,14.70
2018-04-26T17:54:35.656Z,14.60
2018-04-26T17:57:10.883Z,14.70
2018-04-26T17:59:46.500Z,14.70
2018-04-26T18:02:22.309Z,14.70
2018-04-26T18:04:58.294Z,14.60
2018-04-26T18:07:33.457Z,14.50
2018-04-26T18:10:08.655Z,14.60
2018-04-26T18:12:44.045Z,14.50
2018-04-26T18:15:19.968Z,14.30
2018-04-26T18:17:55.211Z,14.30
2018-04-26T18:20:30.550Z,14.30
2018-04-26T18:23:05.719Z,14.30
2018-04-26T18:25:40.831Z,14.30
2018-04-26T18:28:16.131Z,14.20
2018-04-26T18:30:51.499Z,14.30
2018-04-26T18:33:26.644Z,14.30
2018-04-26T18:36:02.715Z,14.10
2018-04-26T18:38:37.801Z,14.00
2018-04-26T18:41:13.164Z,14.00
2018-04-26T18:43:48.863Z,14.00
2018-04-26T18:46:24.059Z,13.90
2018-04-26T18:49:00.991Z,13.90
2018-04-26T18:51:36.188Z,13.90
2018-04-26T18:54:11.430Z,14.00
2018-04-26T18:56:46.799Z,13.90
2018-04-26T18:59:22.080Z,13.80
2018-04-26T19:01:57.407Z,13.80
2018-04-26T19:04:33.550Z,13.70
2018-04-26T19:07:08.715Z,13.70
2018-04-26T19:09:44.239Z,13.60
2018-04-26T19:12:21.258Z,13.60
2018-04-26T19:14:57.522Z,13.60
2018-04-26T19:17:32.585Z,13.50
2018-04-26T19:20:09.255Z,13.40
2018-04-26T19:22:45.340Z,13.40
2018-04-26T19:25:20.630Z,13.40
2018-04-26T19:27:59.487Z,13.30
2018-04-26T19:30:35.569Z,13.20
2018-04-26T19:33:11.492Z,13.30
2018-04-26T19:35:47.503Z,13.30
2018-04-26T19:38:22.871Z,13.30
2018-04-26T19:40:58.148Z,13.20
2018-04-26T19:43:33.420Z,13.20
2018-04-26T19:46:08.688Z,13.20
2018-04-26T19:48:44.062Z,13.10
2018-04-26T19:51:19.154Z,13.10
2018-04-26T19:53:57.218Z,13.00
2018-04-26T19:56:32.287Z,13.00
2018-04-26T19:59:08.343Z,13.00
2018-04-26T20:01:43.920Z,12.90
2018-04-26T20:04:19.995Z,12.90
2018-04-26T20:06:55.301Z,12.80
2018-04-26T20:09:30.755Z,12.70
2018-04-26T20:12:06.026Z,12.70
2018-04-26T20:14:41.388Z,12.60
2018-04-26T20:17:17.376Z,12.60
2018-04-26T20:19:52.497Z,12.50
2018-04-26T20:22:27.639Z,12.50
2018-04-26T20:25:02.900Z,12.40
2018-04-26T20:27:38.251Z,12.30
2018-04-26T20:30:13.487Z,12.30
2018-04-26T20:32:48.832Z,12.30
2018-04-26T20:35:24.174Z,12.20
2018-04-26T20:37:59.421Z,12.20
2018-04-26T20:40:35.381Z,12.00
2018-04-26T20:43:10.647Z,11.90
2018-04-26T20:45:45.815Z,11.90
2018-04-26T20:48:42.325Z,11.90
2018-04-26T20:51:18.330Z,11.80
2018-04-26T20:53:53.533Z,11.80
2018-04-26T20:56:28.644Z,11.80
2018-04-26T20:59:03.855Z,11.80
2018-04-26T21:01:39.178Z,11.80
2018-04-26T21:04:15.401Z,11.80
2018-04-26T21:06:51.481Z,11.80
2018-04-26T21:09:28.494Z,11.90
2018-04-26T21:12:03.548Z,11.90
2018-04-26T21:14:38.922Z,11.80
2018-04-26T21:17:14.002Z,11.70
2018-04-26T21:19:49.310Z,11.60
2018-04-26T21:22:24.662Z,11.60
2018-04-26T21:25:00.590Z,11.50
2018-04-26T21:27:35.975Z,11.40
2018-04-26T21:30:11.327Z,11.50
2018-04-26T21:32:46.655Z,11.40
2018-04-26T21:35:22.627Z,11.30
2018-04-26T21:37:57.838Z,11.20
2018-04-26T21:40:33.202Z,11.20
2018-04-26T21:43:08.269Z,11.10
2018-04-26T21:45:43.558Z,11.10
2018-04-26T21:48:18.810Z,11.10
2018-04-26T21:50:59.647Z,11.00
2018-04-26T21:53:40.551Z,11.00
2018-04-26T21:56:21.554Z,11.00
2018-04-26T21:59:02.365Z,11.00
2018-04-26T22:01:43.243Z,10.90
2018-04-26T22:17:42.247Z,10.70
2018-04-26T22:20:18.195Z,10.60
2018-04-26T22:22:53.355Z,10.60
2018-04-26T22:25:29.261Z,10.60
2018-04-26T22:28:05.268Z,10.50
2018-04-26T22:30:40.399Z,10.50
2018-04-26T22:33:16.472Z,10.50
2018-04-26T22:35:52.452Z,10.40
2018-04-26T22:38:27.528Z,10.40
2018-04-26T22:41:02.904Z,10.40
2018-04-26T22:43:38.844Z,10.30
2018-04-26T22:46:14.091Z,10.20
2018-04-26T22:48:49.291Z,10.20
2018-04-26T22:51:24.591Z,10.20
2018-04-26T22:53:59.901Z,10.10
2018-04-26T22:56:35.069Z,10.00
2018-04-26T22:59:10.237Z,9.90
2018-04-26T23:01:45.486Z,9.90
2018-04-26T23:04:20.824Z,9.80
2018-04-26T23:06:56.048Z,9.80
2018-04-26T23:09:31.561Z,9.70
2018-04-26T23:12:07.465Z,9.70
2018-04-26T23:14:43.081Z,9.70
2018-04-26T23:17:19.240Z,9.60
2018-04-26T23:19:56.822Z,9.60
2018-04-26T23:22:31.968Z,9.60
2018-04-26T23:25:07.027Z,9.50
2018-04-26T23:27:42.273Z,9.50
2018-04-26T23:30:18.126Z,9.50
2018-04-26T23:32:54.110Z,9.40
2018-04-26T23:35:29.330Z,9.30
2018-04-26T23:38:05.248Z,9.40
2018-04-26T23:40:40.445Z,9.30
2018-04-26T23:43:15.756Z,9.30
2018-04-26T23:45:50.917Z,9.30
2018-04-26T23:48:26.263Z,9.20
2018-04-26T23:51:01.655Z,9.20
2018-04-26T23:53:36.718Z,9.10
2018-04-26T23:56:11.997Z,9.10
2018-04-26T23:58:47.355Z,9.00
